Time;durP1;ratioP1;P1;durP2;ratioP2;P2;SDS_P1;SDS_P2;PMS_P1;PMS_P2;Temp;Humidity;BMP_temperature;BMP_pressure;BME280_temperature;BME280_humidity;BME280_pressure;Samples;Min_cycle;Max_cycle;Signal;HPM_P1;HPM_P2
2022/11/24 00:01:59;;;;;;;;;;;5.80;99.90;;;;;;5047979;28;19939;-70
2022/11/24 00:04:26;;;;;;;;;;;5.80;99.90;;;;;;5044879;28;19933;-70
2022/11/24 00:06:54;;;;;;;;;;;5.80;99.90;;;;;;5049454;28;19925;-70
2022/11/24 00:09:21;;;;;;;;;;;5.80;99.90;;;;;;5046916;28;20294;-70
2022/11/24 00:11:48;;;;;;;;;;;5.80;99.90;;;;;;5046734;28;20014;-70
2022/11/24 00:14:14;;;;;;;;;;;5.80;99.90;;;;;;5055724;28;20412;-69
2022/11/24 00:16:41;;;;;;;;;;;5.80;99.90;;;;;;5046026;28;20414;-69
2022/11/24 00:19:09;;;;;;;;;;;5.80;99.90;;;;;;5047633;28;20050;-69
2022/11/24 00:21:36;;;;;;;;;;;5.70;99.90;;;;;;5041632;28;20322;-70
2022/11/24 00:24:05;;;;;;;;;;;5.80;99.90;;;;;;5055417;28;19997;-69
2022/11/24 00:26:33;;;;;;;;;;;5.80;99.90;;;;;;5045424;28;19939;-69
2022/11/24 00:29:01;;;;;;;;;;;5.70;99.90;;;;;;5043181;28;20398;-69
2022/11/24 00:31:29;;;;;;;;;;;5.70;99.90;;;;;;5049901;28;20027;-70
2022/11/24 00:33:57;;;;;;;;;;;5.70;99.90;;;;;;5053013;28;19978;-70
2022/11/24 00:36:26;;;;;;;;;;;5.70;99.90;;;;;;5056009;28;20388;-69
2022/11/24 00:38:54;;;;;;;;;;;5.70;99.90;;;;;;5052231;28;20031;-70
2022/11/24 00:41:22;;;;;;;;;;;5.70;99.90;;;;;;5049341;28;19925;-69
2022/11/24 00:43:49;;;;;;;;;;;5.80;99.90;;;;;;5056619;28;19925;-69
2022/11/24 00:46:15;;;;;;;;;;;5.80;99.90;;;;;;5050382;28;19952;-69
2022/11/24 00:48:42;;;;;;;;;;;5.80;99.90;;;;;;5053005;28;19940;-70
2022/11/24 00:51:10;;;;;;;;;;;5.80;99.90;;;;;;5041321;28;19929;-69
2022/11/24 00:53:37;;;;;;;;;;;5.80;99.90;;;;;;5053340;28;19972;-70
2022/11/24 00:56:04;;;;;;;;;;;5.70;99.90;;;;;;5051463;28;19929;-70
2022/11/24 00:58:32;;;;;;;;;;;5.70;99.90;;;;;;5050596;28;19932;-69
2022/11/24 01:01:01;;;;;;;;;;;5.70;99.90;;;;;;5046863;28;19933;-69
2022/11/24 01:03:28;;;;;;;;;;;5.70;99.90;;;;;;5053205;28;20120;-70
2022/11/24 01:05:55;;;;;;;;;;;5.80;99.90;;;;;;5047707;28;19930;-70
2022/11/24 01:08:21;;;;;;;;;;;5.80;99.90;;;;;;5045974;28;20509;-70
2022/11/24 01:10:48;;;;;;;;;;;5.70;99.90;;;;;;5055011;28;20603;-69
2022/11/24 01:13:15;;;;;;;;;;;5.70;99.90;;;;;;5049525;28;19925;-70
2022/11/24 01:15:43;;;;;;;;;;;5.70;99.90;;;;;;5049055;28;19925;-69
2022/11/24 01:18:12;;;;;;;;;;;5.70;99.90;;;;;;5054206;28;20328;-69
2022/11/24 01:20:38;;;;;;;;;;;5.70;99.90;;;;;;5056168;28;20510;-70
2022/11/24 01:23:06;;;;;;;;;;;5.60;99.90;;;;;;5053133;28;19925;-70
2022/11/24 01:25:32;;;;;;;;;;;5.60;99.90;;;;;;5046765;28;19932;-70
2022/11/24 01:27:59;;;;;;;;;;;5.60;99.90;;;;;;5045199;28;20853;-70
2022/11/24 01:30:26;;;;;;;;;;;5.60;99.90;;;;;;5048564;28;20019;-70
2022/11/24 01:32:54;;;;;;;;;;;5.60;99.90;;;;;;5056609;28;20658;-69
2022/11/24 01:35:21;;;;;;;;;;;5.60;99.90;;;;;;5047469;28;19925;-70
2022/11/24 01:37:48;;;;;;;;;;;5.60;99.90;;;;;;5053447;28;20030;-70
2022/11/24 01:40:15;;;;;;;;;;;5.60;99.90;;;;;;5053878;28;19925;-69
2022/11/24 01:42:46;;;;;;;;;;;5.50;99.90;;;;;;5056464;28;19924;-70
2022/11/24 01:45:28;;;;;;;;;;;5.50;99.90;;;;;;5043955;28;20352;-69
2022/11/24 01:47:56;;;;;;;;;;;5.50;99.90;;;;;;5050695;28;19972;-69
2022/11/24 01:50:23;;;;;;;;;;;5.50;99.90;;;;;;5049017;28;20201;-70
2022/11/24 01:52:52;;;;;;;;;;;5.50;99.90;;;;;;5046745;28;19932;-70
2022/11/24 01:55:21;;;;;;;;;;;5.50;99.90;;;;;;5047860;28;19929;-70
2022/11/24 01:57:49;;;;;;;;;;;5.50;99.90;;;;;;5050025;28;20020;-70
2022/11/24 02:00:17;;;;;;;;;;;5.50;99.90;;;;;;5046522;28;20018;-70
2022/11/24 02:02:44;;;;;;;;;;;5.50;99.90;;;;;;5047036;28;19933;-70
2022/11/24 02:05:15;;;;;;;;;;;5.50;99.90;;;;;;5052774;28;20063;-69
2022/11/24 02:07:42;;;;;;;;;;;5.50;99.90;;;;;;5049784;28;20028;-70
2022/11/24 02:10:12;;;;;;;;;;;5.50;99.90;;;;;;5063302;28;20362;-70
2022/11/24 02:12:39;;;;;;;;;;;5.50;99.90;;;;;;5051578;28;19943;-70
2022/11/24 02:15:08;;;;;;;;;;;5.50;99.90;;;;;;5050254;28;20460;-70
2022/11/24 02:17:36;;;;;;;;;;;5.40;99.90;;;;;;5045626;28;19929;-69
2022/11/24 02:20:04;;;;;;;;;;;5.40;99.90;;;;;;5048112;28;22074;-69
2022/11/24 02:22:35;;;;;;;;;;;5.40;99.90;;;;;;5056300;28;20371;-70
2022/11/24 02:25:06;;;;;;;;;;;5.40;99.90;;;;;;5043685;28;20413;-70
2022/11/24 02:27:35;;;;;;;;;;;5.40;99.90;;;;;;5052069;28;20789;-69
2022/11/24 02:30:04;;;;;;;;;;;5.40;99.90;;;;;;5054162;28;20066;-69
2022/11/24 02:32:31;;;;;;;;;;;5.40;99.90;;;;;;5078203;22;19991;-67
2022/11/24 02:35:02;;;;;;;;;;;5.40;99.90;;;;;;5044849;28;19925;-67
2022/11/24 02:37:29;;;;;;;;;;;5.40;99.90;;;;;;5049459;28;19979;-67
2022/11/24 02:39:55;;;;;;;;;;;5.40;99.90;;;;;;5048145;28;19932;-67
2022/11/24 02:42:23;;;;;;;;;;;5.40;99.90;;;;;;5035647;28;21159;-67
2022/11/24 02:44:54;;;;;;;;;;;5.40;99.90;;;;;;5040690;28;19940;-69
2022/11/24 02:47:21;;;;;;;;;;;5.50;99.90;;;;;;5045400;28;20353;-69
2022/11/24 02:49:47;;;;;;;;;;;5.40;99.90;;;;;;5043847;28;20471;-67
2022/11/24 02:52:14;;;;;;;;;;;5.40;99.90;;;;;;5044012;28;19929;-69
2022/11/24 02:54:41;;;;;;;;;;;5.40;99.90;;;;;;5048673;28;19924;-69
2022/11/24 02:57:08;;;;;;;;;;;5.40;99.90;;;;;;5050395;28;19940;-69
2022/11/24 02:59:35;;;;;;;;;;;5.40;99.90;;;;;;5051960;28;20006;-69
2022/11/24 03:02:03;;;;;;;;;;;5.40;99.90;;;;;;5047135;28;19925;-70
2022/11/24 03:04:30;;;;;;;;;;;5.40;99.90;;;;;;5043359;28;19940;-70
2022/11/24 03:06:57;;;;;;;;;;;5.40;99.90;;;;;;5048395;28;20232;-69
2022/11/24 03:09:24;;;;;;;;;;;5.40;99.90;;;;;;5044220;28;20030;-69
2022/11/24 03:11:51;;;;;;;;;;;5.40;99.90;;;;;;5054741;28;20632;-70
2022/11/24 03:14:17;;;;;;;;;;;5.40;99.90;;;;;;5039797;28;19971;-69
2022/11/24 03:16:44;;;;;;;;;;;5.40;99.90;;;;;;5050110;28;19924;-69
2022/11/24 03:19:13;;;;;;;;;;;5.50;99.90;;;;;;5052662;28;19928;-67
2022/11/24 03:21:39;;;;;;;;;;;5.40;99.90;;;;;;5041710;28;19963;-70
2022/11/24 03:24:06;;;;;;;;;;;5.40;99.90;;;;;;5045160;28;20663;-68
2022/11/24 03:26:35;;;;;;;;;;;5.50;99.90;;;;;;5054105;28;20019;-70
2022/11/24 03:29:02;;;;;;;;;;;5.40;99.90;;;;;;5041513;28;19971;-69
2022/11/24 03:31:29;;;;;;;;;;;5.50;99.90;;;;;;5051912;28;19968;-70
2022/11/24 03:33:55;;;;;;;;;;;5.50;99.90;;;;;;5044430;28;19935;-69
2022/11/24 03:36:24;;;;;;;;;;;5.50;99.90;;;;;;5045962;28;20382;-69
2022/11/24 03:38:50;;;;;;;;;;;5.50;99.90;;;;;;5049330;28;20319;-70
2022/11/24 03:41:17;;;;;;;;;;;5.50;99.90;;;;;;5040224;28;19933;-70
2022/11/24 03:43:44;;;;;;;;;;;5.50;99.90;;;;;;5047074;28;20315;-70
2022/11/24 03:46:11;;;;;;;;;;;5.50;99.90;;;;;;5057763;28;20283;-69
2022/11/24 03:48:38;;;;;;;;;;;5.50;99.90;;;;;;5041947;28;19972;-70
2022/11/24 03:51:05;;;;;;;;;;;5.50;99.90;;;;;;5047368;28;20379;-70
2022/11/24 03:53:33;;;;;;;;;;;5.40;99.90;;;;;;5055227;28;20127;-70
2022/11/24 03:56:00;;;;;;;;;;;5.40;99.90;;;;;;5048717;28;19925;-71
2022/11/24 03:58:27;;;;;;;;;;;5.40;99.90;;;;;;5041635;28;19932;-68
2022/11/24 04:00:54;;;;;;;;;;;5.40;99.90;;;;;;5052736;28;19960;-70
2022/11/24 04:03:22;;;;;;;;;;;5.40;99.90;;;;;;5045974;28;19924;-70
2022/11/24 04:05:49;;;;;;;;;;;5.40;99.90;;;;;;5040803;28;19932;-68
2022/11/24 04:08:16;;;;;;;;;;;5.40;99.90;;;;;;5046858;28;19982;-71
2022/11/24 04:10:44;;;;;;;;;;;5.40;99.90;;;;;;5043387;28;20392;-70
2022/11/24 04:13:11;;;;;;;;;;;5.40;99.90;;;;;;5037388;28;19929;-70
2022/11/24 04:15:38;;;;;;;;;;;5.40;99.90;;;;;;5048339;28;19921;-70
2022/11/24 04:18:05;;;;;;;;;;;5.40;99.90;;;;;;5048110;28;19932;-69
2022/11/24 04:20:32;;;;;;;;;;;5.40;99.90;;;;;;5045970;28;19932;-67
2022/11/24 04:22:58;;;;;;;;;;;5.40;99.90;;;;;;5046281;28;19937;-70
2022/11/24 04:25:25;;;;;;;;;;;5.40;99.90;;;;;;5045470;28;20395;-70
2022/11/24 04:27:54;;;;;;;;;;;5.40;99.90;;;;;;5045468;28;19924;-67
2022/11/24 04:30:21;;;;;;;;;;;5.40;99.90;;;;;;5048087;28;19924;-69
2022/11/24 04:32:48;;;;;;;;;;;5.40;99.90;;;;;;5042615;28;20394;-68
2022/11/24 04:35:15;;;;;;;;;;;5.40;99.90;;;;;;5045849;28;20403;-67
2022/11/24 04:37:42;;;;;;;;;;;5.40;99.90;;;;;;5047722;28;19924;-70
2022/11/24 04:40:10;;;;;;;;;;;5.40;99.90;;;;;;5048907;28;19932;-69
2022/11/24 04:42:37;;;;;;;;;;;5.40;99.90;;;;;;5039406;28;20292;-69
2022/11/24 04:45:06;;;;;;;;;;;5.40;99.90;;;;;;5036927;28;20055;-69
2022/11/24 04:47:33;;;;;;;;;;;5.40;99.90;;;;;;5042267;28;19928;-69
2022/11/24 04:50:00;;;;;;;;;;;5.40;99.90;;;;;;5043594;28;20104;-69
2022/11/24 04:52:27;;;;;;;;;;;5.40;99.90;;;;;;5047001;28;20346;-69
2022/11/24 04:54:54;;;;;;;;;;;5.40;99.90;;;;;;5047237;28;20409;-69
2022/11/24 04:57:21;;;;;;;;;;;5.40;99.90;;;;;;5038855;28;20016;-69
2022/11/24 04:59:49;;;;;;;;;;;5.40;99.90;;;;;;5040704;28;19933;-71
2022/11/24 05:02:17;;;;;;;;;;;5.30;99.90;;;;;;5040081;28;20017;-69
2022/11/24 05:04:47;;;;;;;;;;;5.40;99.90;;;;;;5021168;28;19936;-69
2022/11/24 05:07:14;;;;;;;;;;;5.40;99.90;;;;;;5045484;28;19968;-69
2022/11/24 05:12:23;;;;;;;;;;;5.40;99.90;;;;;;5039948;28;20405;-69
2022/11/24 05:14:50;;;;;;;;;;;5.40;99.90;;;;;;5050579;28;19987;-69
2022/11/24 05:17:18;;;;;;;;;;;5.40;99.90;;;;;;5047602;28;20039;-69
2022/11/24 05:19:47;;;;;;;;;;;5.40;99.90;;;;;;5039485;28;20395;-69
2022/11/24 05:22:13;;;;;;;;;;;5.40;99.90;;;;;;5041464;28;19940;-69
2022/11/24 05:24:40;;;;;;;;;;;5.40;99.90;;;;;;5047991;28;19972;-69
2022/11/24 05:27:07;;;;;;;;;;;5.30;99.90;;;;;;5048566;28;19978;-69
2022/11/24 05:29:34;;;;;;;;;;;5.40;99.90;;;;;;5046526;28;19939;-69
2022/11/24 05:32:01;;;;;;;;;;;5.40;99.90;;;;;;5051211;28;19928;-70
2022/11/24 05:34:32;;;;;;;;;;;5.40;99.90;;;;;;5045108;28;19925;-69
2022/11/24 05:37:01;;;;;;;;;;;5.40;99.90;;;;;;5048021;28;20023;-69
2022/11/24 05:39:28;;;;;;;;;;;5.40;99.90;;;;;;5033997;28;20012;-69
2022/11/24 05:41:55;;;;;;;;;;;5.40;99.90;;;;;;5047616;28;19937;-74
2022/11/24 05:44:22;;;;;;;;;;;5.40;99.90;;;;;;5041658;28;19936;-70
2022/11/24 05:46:49;;;;;;;;;;;5.40;99.90;;;;;;5038932;28;19967;-76
2022/11/24 05:49:16;;;;;;;;;;;5.40;99.90;;;;;;5042797;28;19929;-79
2022/11/24 05:51:44;;;;;;;;;;;5.40;99.90;;;;;;5049035;28;19925;-70
2022/11/24 05:54:11;;;;;;;;;;;5.40;99.90;;;;;;5043096;28;19929;-70
2022/11/24 05:56:41;;;;;;;;;;;5.40;99.90;;;;;;5062651;28;20612;-69
2022/11/24 05:59:08;;;;;;;;;;;5.40;99.90;;;;;;5046725;28;19932;-70
2022/11/24 06:01:35;;;;;;;;;;;5.40;99.90;;;;;;5048235;28;19932;-73
2022/11/24 06:04:01;;;;;;;;;;;5.40;99.90;;;;;;5040960;28;19928;-70
2022/11/24 06:06:28;;;;;;;;;;;5.40;99.90;;;;;;5032652;28;20383;-70
2022/11/24 06:08:56;;;;;;;;;;;5.40;99.90;;;;;;5035501;28;19933;-70
2022/11/24 06:11:23;;;;;;;;;;;5.40;99.90;;;;;;5036793;28;20015;-70
2022/11/24 06:13:50;;;;;;;;;;;5.40;99.90;;;;;;5047544;28;19983;-70
2022/11/24 06:16:17;;;;;;;;;;;5.40;99.90;;;;;;5041287;28;19925;-70
2022/11/24 06:18:44;;;;;;;;;;;5.50;99.90;;;;;;5042845;28;20471;-70
2022/11/24 06:21:11;;;;;;;;;;;5.40;99.90;;;;;;5041380;28;20366;-73
2022/11/24 06:23:38;;;;;;;;;;;5.40;99.90;;;;;;5039572;28;20568;-77
2022/11/24 06:26:07;;;;;;;;;;;5.40;99.90;;;;;;5051393;28;19925;-70
2022/11/24 06:28:35;;;;;;;;;;;5.40;99.90;;;;;;5045915;28;20354;-69
2022/11/24 06:31:04;;;;;;;;;;;5.50;99.90;;;;;;5048358;28;19964;-69
2022/11/24 06:33:32;;;;;;;;;;;5.40;99.90;;;;;;5037260;28;19933;-69
2022/11/24 06:36:01;;;;;;;;;;;5.40;99.90;;;;;;5049379;28;19935;-69
2022/11/24 06:38:28;;;;;;;;;;;5.40;99.90;;;;;;5042732;28;20329;-69
2022/11/24 06:40:58;;;;;;;;;;;5.50;99.90;;;;;;5027997;28;20598;-69
2022/11/24 06:43:27;;;;;;;;;;;5.50;99.90;;;;;;5056404;28;19951;-70
2022/11/24 06:45:54;;;;;;;;;;;5.50;99.90;;;;;;5038410;28;20364;-69
2022/11/24 06:48:21;;;;;;;;;;;5.50;99.90;;;;;;5053383;28;19975;-69
2022/11/24 06:50:48;;;;;;;;;;;5.50;99.90;;;;;;5040487;28;19925;-70
2022/11/24 06:53:15;;;;;;;;;;;5.50;99.90;;;;;;5049710;28;19924;-70
2022/11/24 06:55:42;;;;;;;;;;;5.50;99.90;;;;;;5049548;28;19925;-69
2022/11/24 06:58:09;;;;;;;;;;;5.50;99.90;;;;;;5048904;28;19970;-69
2022/11/24 07:00:37;;;;;;;;;;;5.50;99.90;;;;;;5043906;28;19975;-70
2022/11/24 07:03:04;;;;;;;;;;;5.50;99.90;;;;;;5042425;28;20394;-69
2022/11/24 07:05:31;;;;;;;;;;;5.50;99.90;;;;;;5051014;28;19928;-69
2022/11/24 07:07:58;;;;;;;;;;;5.50;99.90;;;;;;5043680;28;19929;-70
2022/11/24 07:10:25;;;;;;;;;;;5.50;99.90;;;;;;5046138;28;19971;-69
2022/11/24 07:12:52;;;;;;;;;;;5.50;99.90;;;;;;5051374;28;19925;-69
2022/11/24 07:15:19;;;;;;;;;;;5.50;99.90;;;;;;5047663;28;20283;-69
2022/11/24 07:17:47;;;;;;;;;;;5.50;99.90;;;;;;5043855;28;20549;-70
2022/11/24 07:20:14;;;;;;;;;;;5.50;99.90;;;;;;5047857;28;19960;-69
2022/11/24 07:22:41;;;;;;;;;;;5.60;99.90;;;;;;5054218;28;19935;-69
2022/11/24 07:25:09;;;;;;;;;;;5.60;99.90;;;;;;5051078;28;19929;-70
2022/11/24 07:27:35;;;;;;;;;;;5.50;99.90;;;;;;5040883;28;19929;-70
2022/11/24 07:30:03;;;;;;;;;;;5.60;99.90;;;;;;5044926;28;19982;-69
2022/11/24 07:32:30;;;;;;;;;;;5.60;99.90;;;;;;5048300;28;19929;-69
2022/11/24 07:34:59;;;;;;;;;;;5.60;99.90;;;;;;5042547;28;20010;-69
2022/11/24 07:37:26;;;;;;;;;;;5.50;99.90;;;;;;5045316;28;19925;-70
2022/11/24 07:39:53;;;;;;;;;;;5.60;99.90;;;;;;5054343;28;19925;-69
2022/11/24 07:42:20;;;;;;;;;;;5.60;99.90;;;;;;5055028;28;19940;-70
2022/11/24 07:44:47;;;;;;;;;;;5.60;99.90;;;;;;5039975;28;19960;-70
2022/11/24 07:47:13;;;;;;;;;;;5.60;99.90;;;;;;5049187;28;19925;-70
2022/11/24 07:49:40;;;;;;;;;;;5.60;99.90;;;;;;5048703;28;19933;-69
2022/11/24 07:52:08;;;;;;;;;;;5.60;99.90;;;;;;5041370;28;19925;-70
2022/11/24 07:54:35;;;;;;;;;;;5.60;99.90;;;;;;5044691;28;19928;-69
2022/11/24 07:57:02;;;;;;;;;;;5.60;99.90;;;;;;5044175;28;19929;-70
2022/11/24 07:59:29;;;;;;;;;;;5.60;99.90;;;;;;5052073;28;20091;-70
2022/11/24 08:01:56;;;;;;;;;;;5.60;99.90;;;;;;5039493;28;19964;-70
2022/11/24 08:04:23;;;;;;;;;;;5.60;99.90;;;;;;5047359;28;19924;-69
2022/11/24 08:06:49;;;;;;;;;;;5.60;99.90;;;;;;5042549;28;19976;-69
2022/11/24 08:09:18;;;;;;;;;;;5.60;99.90;;;;;;5049156;28;20339;-69
2022/11/24 08:11:44;;;;;;;;;;;5.60;99.90;;;;;;5040128;28;19925;-69
2022/11/24 08:14:11;;;;;;;;;;;5.60;99.90;;;;;;5043493;28;19925;-70
2022/11/24 08:16:38;;;;;;;;;;;5.60;99.90;;;;;;5054502;28;19924;-70
2022/11/24 08:19:05;;;;;;;;;;;5.60;99.90;;;;;;5039505;28;19925;-70
2022/11/24 08:21:32;;;;;;;;;;;5.60;99.90;;;;;;5044209;28;19928;-70
2022/11/24 08:23:59;;;;;;;;;;;5.70;99.90;;;;;;5039315;28;19925;-71
2022/11/24 08:26:27;;;;;;;;;;;5.70;99.90;;;;;;5028885;28;19928;-69
2022/11/24 08:28:57;;;;;;;;;;;5.70;99.90;;;;;;5039500;28;19924;-70
2022/11/24 08:31:26;;;;;;;;;;;5.70;99.90;;;;;;5030807;28;19944;-71
2022/11/24 08:33:54;;;;;;;;;;;5.70;99.90;;;;;;5030485;28;19925;-70
2022/11/24 08:36:21;;;;;;;;;;;5.70;99.90;;;;;;5033804;28;19951;-73
2022/11/24 08:38:48;;;;;;;;;;;5.70;99.90;;;;;;5035198;28;19940;-70
2022/11/24 08:41:17;;;;;;;;;;;5.70;99.90;;;;;;5025299;28;19932;-70
2022/11/24 08:43:45;;;;;;;;;;;5.70;99.90;;;;;;5019997;28;19932;-71
2022/11/24 08:46:15;;;;;;;;;;;5.70;99.90;;;;;;5046597;28;19928;-70
2022/11/24 08:48:42;;;;;;;;;;;5.80;99.90;;;;;;5035533;28;20310;-70
2022/11/24 08:51:09;;;;;;;;;;;5.80;99.90;;;;;;5038912;28;20329;-70
2022/11/24 08:53:36;;;;;;;;;;;5.80;99.90;;;;;;5042654;28;19925;-70
2022/11/24 08:56:04;;;;;;;;;;;5.80;99.90;;;;;;5048798;28;19986;-70
2022/11/24 08:58:31;;;;;;;;;;;5.80;99.90;;;;;;5050933;28;20379;-70
2022/11/24 09:01:04;;;;;;;;;;;5.80;99.90;;;;;;5044849;28;19924;-70
2022/11/24 09:03:31;;;;;;;;;;;5.80;99.90;;;;;;5043252;28;19987;-70
2022/11/24 09:05:58;;;;;;;;;;;5.80;99.90;;;;;;5051233;28;20310;-70
2022/11/24 09:08:24;;;;;;;;;;;5.80;99.90;;;;;;5042946;28;19991;-69
2022/11/24 09:10:51;;;;;;;;;;;5.80;99.90;;;;;;5049870;28;19935;-69
2022/11/24 09:13:18;;;;;;;;;;;5.80;99.90;;;;;;5052059;28;19925;-69
2022/11/24 09:15:45;;;;;;;;;;;5.80;99.90;;;;;;5045116;28;19964;-69
2022/11/24 09:18:13;;;;;;;;;;;5.80;99.90;;;;;;5044815;28;19928;-69
2022/11/24 09:20:40;;;;;;;;;;;5.80;99.90;;;;;;5043871;28;20295;-69
2022/11/24 09:23:07;;;;;;;;;;;5.80;99.90;;;;;;5046856;28;19924;-69
2022/11/24 09:25:34;;;;;;;;;;;5.80;99.90;;;;;;5048149;28;19929;-69
2022/11/24 09:28:01;;;;;;;;;;;5.80;99.90;;;;;;5049129;28;20290;-68
2022/11/24 09:30:30;;;;;;;;;;;5.90;99.90;;;;;;5044421;28;20408;-68
2022/11/24 09:32:57;;;;;;;;;;;5.90;99.90;;;;;;5043358;28;19968;-68
2022/11/24 09:35:25;;;;;;;;;;;5.90;99.90;;;;;;5048672;28;19924;-68
2022/11/24 09:37:55;;;;;;;;;;;5.90;99.90;;;;;;5047238;28;19968;-68
2022/11/24 09:40:22;;;;;;;;;;;5.90;99.90;;;;;;5047334;28;20433;-68
2022/11/24 09:42:55;;;;;;;;;;;5.90;99.90;;;;;;5049461;28;19952;-68
2022/11/24 09:45:27;;;;;;;;;;;5.90;99.90;;;;;;5052795;28;19928;-68
2022/11/24 09:47:59;;;;;;;;;;;5.90;99.90;;;;;;5043672;28;19940;-68
2022/11/24 09:50:29;;;;;;;;;;;5.90;99.90;;;;;;5052443;28;19939;-68
2022/11/24 09:53:00;;;;;;;;;;;5.90;99.90;;;;;;5046845;28;19925;-68
2022/11/24 09:55:31;;;;;;;;;;;6.00;99.90;;;;;;5050342;28;20008;-68
2022/11/24 09:58:14;;;;;;;;;;;5.90;99.90;;;;;;5051482;28;20387;-68
2022/11/24 10:00:44;;;;;;;;;;;6.00;99.90;;;;;;5040917;28;19933;-68
2022/11/24 10:03:15;;;;;;;;;;;6.00;99.90;;;;;;5042816;28;19928;-68
2022/11/24 10:05:45;;;;;;;;;;;6.00;99.90;;;;;;5052014;28;19933;-68
2022/11/24 10:08:18;;;;;;;;;;;6.00;99.90;;;;;;5048542;28;20007;-68
2022/11/24 10:10:51;;;;;;;;;;;6.00;99.90;;;;;;5042853;28;19925;-68
2022/11/24 10:13:30;;;;;;;;;;;6.00;99.90;;;;;;5044248;28;20009;-68
2022/11/24 10:16:02;;;;;;;;;;;6.00;99.90;;;;;;5048722;28;20287;-68
2022/11/24 10:18:36;;;;;;;;;;;6.00;99.90;;;;;;5044146;28;20865;-68
2022/11/24 10:21:10;;;;;;;;;;;6.00;99.90;;;;;;5044778;28;19986;-68
2022/11/24 10:23:45;;;;;;;;;;;6.00;99.90;;;;;;5057725;28;20027;-68
2022/11/24 10:26:16;;;;;;;;;;;6.00;99.90;;;;;;5042566;28;20390;-68
2022/11/24 10:28:44;;;;;;;;;;;6.00;99.90;;;;;;5045826;28;19964;-68
2022/11/24 10:31:17;;;;;;;;;;;6.10;99.90;;;;;;5045513;28;20600;-68
2022/11/24 10:33:44;;;;;;;;;;;6.10;99.90;;;;;;5045384;28;20326;-68
2022/11/24 10:36:16;;;;;;;;;;;6.10;99.90;;;;;;5037831;28;20237;-68
2022/11/24 10:38:45;;;;;;;;;;;6.10;99.90;;;;;;5040339;28;19974;-68
2022/11/24 10:41:13;;;;;;;;;;;6.10;99.90;;;;;;5050257;28;19928;-68
2022/11/24 10:43:41;;;;;;;;;;;6.10;99.90;;;;;;5044339;28;19925;-68
2022/11/24 10:46:10;;;;;;;;;;;6.10;99.90;;;;;;5044780;28;19967;-70
2022/11/24 10:48:39;;;;;;;;;;;6.10;99.90;;;;;;5045222;28;20015;-70
2022/11/24 10:51:22;;;;;;;;;;;6.10;99.90;;;;;;5047310;28;20291;-69
2022/11/24 10:53:52;;;;;;;;;;;6.10;99.90;;;;;;5042678;28;19965;-69
2022/11/24 10:56:19;;;;;;;;;;;6.20;99.90;;;;;;5053565;28;20276;-69
2022/11/24 10:58:45;;;;;;;;;;;6.20;99.90;;;;;;5050302;28;20029;-70
2022/11/24 11:01:20;;;;;;;;;;;6.20;99.90;;;;;;5040790;28;20301;-70
2022/11/24 11:03:47;;;;;;;;;;;6.20;99.90;;;;;;5040940;28;19932;-70
2022/11/24 11:06:15;;;;;;;;;;;6.20;99.90;;;;;;5054290;28;19936;-70
2022/11/24 11:08:42;;;;;;;;;;;6.20;99.90;;;;;;5050297;28;19924;-69
2022/11/24 11:11:17;;;;;;;;;;;6.20;99.90;;;;;;5046599;28;20371;-70
2022/11/24 11:13:50;;;;;;;;;;;6.20;99.90;;;;;;5045998;28;19940;-69
2022/11/24 11:16:23;;;;;;;;;;;6.20;99.90;;;;;;5042028;28;20011;-70
2022/11/24 11:18:53;;;;;;;;;;;6.30;99.90;;;;;;5040004;28;20639;-70
2022/11/24 11:21:27;;;;;;;;;;;6.30;99.90;;;;;;5046451;28;20387;-68
2022/11/24 11:23:54;;;;;;;;;;;6.30;99.90;;;;;;5047713;28;20547;-68
2022/11/24 11:26:31;;;;;;;;;;;6.30;99.90;;;;;;5055710;28;19948;-68
2022/11/24 11:29:00;;;;;;;;;;;6.30;99.90;;;;;;5040246;28;20024;-68
2022/11/24 11:31:27;;;;;;;;;;;6.40;99.90;;;;;;5047997;28;19924;-68
2022/11/24 11:33:55;;;;;;;;;;;6.30;99.90;;;;;;5044747;28;19937;-68
2022/11/24 11:36:22;;;;;;;;;;;6.40;99.90;;;;;;5048929;28;19924;-68
2022/11/24 11:38:48;;;;;;;;;;;6.40;99.90;;;;;;5039363;28;19936;-68
2022/11/24 11:41:19;;;;;;;;;;;6.40;99.90;;;;;;5052726;28;20440;-68
2022/11/24 11:43:49;;;;;;;;;;;6.40;99.90;;;;;;5045168;28;19961;-68
2022/11/24 11:46:16;;;;;;;;;;;6.40;99.90;;;;;;5053822;28;19939;-68
2022/11/24 11:48:45;;;;;;;;;;;6.40;99.90;;;;;;5041422;28;19925;-68
2022/11/24 11:51:22;;;;;;;;;;;6.40;99.90;;;;;;5045254;28;19960;-68
2022/11/24 11:53:53;;;;;;;;;;;6.40;99.90;;;;;;5047025;28;19925;-68
2022/11/24 11:56:24;;;;;;;;;;;6.40;99.90;;;;;;5041771;28;19978;-68
2022/11/24 11:59:01;;;;;;;;;;;6.50;99.90;;;;;;5042004;28;20452;-68
2022/11/24 12:01:42;;;;;;;;;;;6.50;99.90;;;;;;5040656;28;19925;-68
2022/11/24 12:04:14;;;;;;;;;;;6.50;99.90;;;;;;5037553;28;19978;-68
2022/11/24 12:06:52;;;;;;;;;;;6.50;99.90;;;;;;5040679;28;20354;-68
2022/11/24 12:09:25;;;;;;;;;;;6.50;99.90;;;;;;5045346;28;19937;-68
2022/11/24 12:12:04;;;;;;;;;;;6.50;99.90;;;;;;5042956;28;19925;-68
2022/11/24 12:14:37;;;;;;;;;;;6.50;99.90;;;;;;5043441;28;19929;-68
2022/11/24 12:17:06;;;;;;;;;;;6.50;99.90;;;;;;5048987;28;20553;-68
2022/11/24 12:19:41;;;;;;;;;;;6.60;99.90;;;;;;5047174;28;20007;-68
2022/11/24 12:22:12;;;;;;;;;;;6.60;99.90;;;;;;5039437;28;19936;-68
2022/11/24 12:24:44;;;;;;;;;;;6.60;99.90;;;;;;5040056;28;19933;-68
2022/11/24 12:27:16;;;;;;;;;;;6.60;99.90;;;;;;5044016;28;19933;-68
2022/11/24 12:29:51;;;;;;;;;;;6.60;99.90;;;;;;5047548;28;19933;-68
2022/11/24 12:32:23;;;;;;;;;;;6.70;99.90;;;;;;5051217;28;19959;-68
2022/11/24 12:34:52;;;;;;;;;;;6.60;99.90;;;;;;5051835;28;20280;-68
2022/11/24 12:37:33;;;;;;;;;;;6.60;99.90;;;;;;5052874;28;20463;-68
2022/11/24 12:40:03;;;;;;;;;;;6.60;99.90;;;;;;5046678;28;19928;-68
2022/11/24 12:42:36;;;;;;;;;;;6.70;99.90;;;;;;5050104;28;19929;-68
2022/11/24 12:45:21;;;;;;;;;;;6.70;99.90;;;;;;5039681;28;19932;-68
2022/11/24 12:48:05;;;;;;;;;;;6.70;99.90;;;;;;5049277;28;19960;-68
2022/11/24 12:50:36;;;;;;;;;;;6.70;99.90;;;;;;5038842;28;20135;-68
2022/11/24 12:53:04;;;;;;;;;;;6.70;99.90;;;;;;5040374;28;20212;-68
2022/11/24 12:55:33;;;;;;;;;;;6.70;99.90;;;;;;5045643;28;19925;-68
2022/11/24 12:58:06;;;;;;;;;;;6.70;99.90;;;;;;5049850;28;19986;-68
2022/11/24 13:00:36;;;;;;;;;;;6.70;99.90;;;;;;5047887;28;20438;-68
2022/11/24 13:03:09;;;;;;;;;;;6.70;99.90;;;;;;5040654;28;19936;-68
2022/11/24 13:05:43;;;;;;;;;;;6.70;99.90;;;;;;5050983;28;19928;-68
2022/11/24 13:08:10;;;;;;;;;;;6.80;99.90;;;;;;5045467;28;20346;-68
2022/11/24 13:10:38;;;;;;;;;;;6.80;99.90;;;;;;5046620;28;19925;-68
2022/11/24 13:13:06;;;;;;;;;;;6.80;99.90;;;;;;5046354;28;19967;-68
2022/11/24 13:15:53;;;;;;;;;;;6.80;99.90;;;;;;5047936;28;20401;-68
2022/11/24 13:18:34;;;;;;;;;;;6.80;99.90;;;;;;5050666;28;19924;-68
2022/11/24 13:21:03;;;;;;;;;;;6.80;99.90;;;;;;5046655;28;19936;-68
2022/11/24 13:23:29;;;;;;;;;;;6.80;99.90;;;;;;5049441;28;19924;-68
2022/11/24 13:26:11;;;;;;;;;;;6.80;99.90;;;;;;5049864;28;19955;-68
2022/11/24 13:28:56;;;;;;;;;;;6.80;99.90;;;;;;5038997;28;20450;-67
2022/11/24 13:31:23;;;;;;;;;;;6.80;99.90;;;;;;5046333;28;19937;-68
2022/11/24 13:33:50;;;;;;;;;;;6.80;99.90;;;;;;5049598;28;20650;-68
2022/11/24 13:36:32;;;;;;;;;;;6.80;99.90;;;;;;5044517;28;19971;-68
2022/11/24 13:39:00;;;;;;;;;;;6.90;99.90;;;;;;5048423;28;19960;-68
2022/11/24 13:41:46;;;;;;;;;;;6.80;99.90;;;;;;5049790;28;20030;-68
2022/11/24 13:44:25;;;;;;;;;;;6.90;99.90;;;;;;5062079;28;19924;-68
2022/11/24 13:46:55;;;;;;;;;;;6.90;99.90;;;;;;5047382;28;20387;-68
2022/11/24 13:49:22;;;;;;;;;;;6.90;99.90;;;;;;5046317;28;19964;-68
2022/11/24 13:51:52;;;;;;;;;;;6.90;99.90;;;;;;5049793;28;19982;-68
2022/11/24 13:54:28;;;;;;;;;;;6.90;99.90;;;;;;5041696;28;20406;-70
2022/11/24 13:57:18;;;;;;;;;;;6.90;99.90;;;;;;5052220;28;19933;-70
2022/11/24 13:59:45;;;;;;;;;;;6.90;99.90;;;;;;5046279;28;20495;-70
2022/11/24 14:02:19;;;;;;;;;;;6.90;99.90;;;;;;5041478;28;19964;-70
2022/11/24 14:04:46;;;;;;;;;;;6.90;99.90;;;;;;5048779;28;19951;-70
2022/11/24 14:07:14;;;;;;;;;;;6.90;99.90;;;;;;5045561;28;19929;-70
2022/11/24 14:09:43;;;;;;;;;;;6.90;99.90;;;;;;5036934;28;19979;-70
2022/11/24 14:12:14;;;;;;;;;;;6.90;99.90;;;;;;5043917;28;19964;-70
2022/11/24 14:14:41;;;;;;;;;;;7.00;99.90;;;;;;5046372;28;19925;-70
2022/11/24 14:17:13;;;;;;;;;;;7.00;99.90;;;;;;5046642;28;19924;-70
2022/11/24 14:19:40;;;;;;;;;;;7.00;99.90;;;;;;5038999;28;19933;-70
2022/11/24 14:22:12;;;;;;;;;;;7.00;99.90;;;;;;5046510;28;20012;-70
2022/11/24 14:24:41;;;;;;;;;;;7.00;99.90;;;;;;5043326;28;19936;-70
2022/11/24 14:27:13;;;;;;;;;;;7.00;99.90;;;;;;5046436;28;19932;-70
2022/11/24 14:29:51;;;;;;;;;;;7.00;99.90;;;;;;5043588;28;19956;-70
2022/11/24 14:32:18;;;;;;;;;;;7.00;99.90;;;;;;5035435;28;20383;-70
2022/11/24 14:34:44;;;;;;;;;;;7.00;99.90;;;;;;5038323;28;19952;-70
2022/11/24 14:37:11;;;;;;;;;;;7.00;99.90;;;;;;5045063;28;19933;-70
2022/11/24 14:39:40;;;;;;;;;;;7.00;99.90;;;;;;5050012;28;19932;-70
2022/11/24 14:42:15;;;;;;;;;;;7.00;99.90;;;;;;5041103;28;19925;-70
2022/11/24 14:44:46;;;;;;;;;;;7.00;99.90;;;;;;5044148;28;20097;-70